SBMN/MAO METAR and TAF weather

Enter ICAO airport designator
Station Type Date Time Source
SBMN METAR 2020/09/22 08:00 UTC NOAA

SBMN 220800Z 13002KT 9999 SCT015 25/23 Q1011


Station Type Date Time Source
SBMN Decoded METAR 2020/09/22 08:00 UTC NOAA

Manaus Aeroporto , Brazil (SBMN) 03-09S 059-59W 84M
Sep 22, 2020 - 04:00 AM EDT / 2020.09.22 0800 UTC
Wind: from the SE (130 degrees) at 2 MPH (2 KT):0
Visibility: greater than 7 mile(s):0
Sky conditions: partly cloudy
Temperature: 77 F (25 C)
Dew Point: 73 F (23 C)
Relative Humidity: 88%
Pressure (altimeter): 29.85 in. Hg (1011 hPa)
ob: SBMN 220800Z 13002KT 9999 SCT015 25/23 Q1011
cycle: 8

Station Type Date Time Source
SBMN TAF 2020/09/22 06:27 UTC NOAA

TAF TAF SBMN 220300Z 2206/2218 08004KT CAVOK TN25/2208Z TX34/2218Z
BECMG 2213/2215 10006KT 9999 SCT020 FEW025TCU
RMK PEQ

Example: see airport list